Time;durP1;ratioP1;P1;durP2;ratioP2;P2;SDS_P1;SDS_P2;PMS_P1;PMS_P2;Temp;Humidity;BMP_temperature;BMP_pressure;BME280_temperature;BME280_humidity;BME280_pressure;Samples;Min_cycle;Max_cycle;Signal;HPM_P1;HPM_P2
2022/03/13 00:01:52;;;;;;;8.05;6.32;;;14.10;71.60;;;;;;5012043;28;20131;-81
2022/03/13 00:04:20;;;;;;;9.25;7.28;;;14.10;71.50;;;;;;4996928;28;20029;-81
2022/03/13 00:06:46;;;;;;;8.30;6.63;;;14.20;71.70;;;;;;4997181;28;20030;-81
2022/03/13 00:09:14;;;;;;;8.50;6.68;;;14.10;71.70;;;;;;4996110;28;20030;-81
2022/03/13 00:11:41;;;;;;;8.43;6.30;;;14.10;71.70;;;;;;4988026;28;20655;-82
2022/03/13 00:14:09;;;;;;;8.40;6.32;;;14.10;71.70;;;;;;4972310;28;20544;-82
2022/03/13 00:16:36;;;;;;;8.45;6.55;;;14.10;71.90;;;;;;4993669;28;20107;-80
2022/03/13 00:19:01;;;;;;;8.70;6.75;;;14.10;71.90;;;;;;4988283;28;20029;-81
2022/03/13 00:21:27;;;;;;;8.35;6.68;;;14.10;71.90;;;;;;5005805;28;20386;-81
2022/03/13 00:23:53;;;;;;;8.68;6.78;;;14.00;71.90;;;;;;4996098;28;20043;-81
2022/03/13 00:26:19;;;;;;;8.00;6.63;;;14.00;71.90;;;;;;5020636;28;20630;-81
2022/03/13 00:28:45;;;;;;;7.63;6.20;;;14.00;71.80;;;;;;4998613;28;20112;-80
2022/03/13 00:31:12;;;;;;;8.82;6.65;;;14.00;71.90;;;;;;5013800;28;20039;-81
2022/03/13 00:33:38;;;;;;;7.72;5.95;;;14.00;72.00;;;;;;5020154;28;20032;-80
2022/03/13 00:36:04;;;;;;;8.40;6.90;;;14.00;72.00;;;;;;5029894;28;20028;-81
2022/03/13 00:38:30;;;;;;;8.07;6.25;;;14.00;72.00;;;;;;5015153;28;20382;-81
2022/03/13 00:40:57;;;;;;;7.80;6.18;;;14.00;72.00;;;;;;4993367;28;20108;-81
2022/03/13 00:43:25;;;;;;;9.45;7.15;;;13.90;72.00;;;;;;5011872;28;20040;-80
2022/03/13 00:45:52;;;;;;;8.68;6.78;;;13.90;71.90;;;;;;5013744;28;20084;-81
2022/03/13 00:48:18;;;;;;;8.63;6.70;;;13.90;72.00;;;;;;5036916;28;20474;-81
2022/03/13 00:50:44;;;;;;;8.35;6.35;;;13.90;71.90;;;;;;4999972;28;20056;-81
2022/03/13 00:53:11;;;;;;;8.07;6.80;;;13.90;71.90;;;;;;5017274;28;20036;-82
2022/03/13 00:55:37;;;;;;;8.93;6.93;;;13.90;71.90;;;;;;5012776;28;20037;-81
2022/03/13 00:58:03;;;;;;;8.30;6.10;;;13.90;72.00;;;;;;4991352;28;20021;-83
2022/03/13 01:00:29;;;;;;;9.27;7.07;;;13.90;72.00;;;;;;5015317;28;20035;-80
2022/03/13 01:02:55;;;;;;;8.80;6.75;;;13.90;72.00;;;;;;5007216;28;20033;-82
2022/03/13 01:05:23;;;;;;;8.63;6.93;;;13.90;72.00;;;;;;5006027;28;20041;-82
2022/03/13 01:07:53;;;;;;;8.57;5.95;;;13.80;72.00;;;;;;5033152;28;20048;-82
2022/03/13 01:10:19;;;;;;;8.00;6.18;;;13.80;72.00;;;;;;5015163;28;20057;-81
2022/03/13 01:12:45;;;;;;;8.02;6.35;;;13.80;72.00;;;;;;5015016;28;20017;-82
2022/03/13 01:15:11;;;;;;;7.85;6.18;;;13.80;72.00;;;;;;5021911;28;20588;-81
2022/03/13 01:17:37;;;;;;;7.57;5.80;;;13.80;72.10;;;;;;4982797;28;20124;-81
2022/03/13 01:20:05;;;;;;;7.72;6.15;;;13.70;72.10;;;;;;4995928;28;20034;-82
2022/03/13 01:22:31;;;;;;;7.90;6.10;;;13.70;72.10;;;;;;4998478;28;20037;-81
2022/03/13 01:24:57;;;;;;;8.43;5.72;;;13.70;72.10;;;;;;4982707;28;20045;-81
2022/03/13 01:27:23;;;;;;;8.07;6.07;;;13.70;72.10;;;;;;5008962;28;20072;-81
2022/03/13 01:29:50;;;;;;;7.43;5.65;;;13.70;72.10;;;;;;5033026;28;20056;-80
2022/03/13 01:32:16;;;;;;;7.55;5.88;;;13.70;72.20;;;;;;5026433;28;20152;-80
2022/03/13 01:34:44;;;;;;;8.27;6.43;;;13.70;72.30;;;;;;4991081;28;20034;-82
2022/03/13 01:37:40;;;;;;;7.38;5.65;;;13.70;72.30;;;;;;5032798;28;20051;-81
2022/03/13 01:40:14;;;;;;;7.68;6.18;;;13.70;72.50;;;;;;5007052;28;20046;-81
2022/03/13 01:42:41;;;;;;;7.15;5.43;;;13.70;72.30;;;;;;5004280;28;20557;-82
2022/03/13 01:45:11;;;;;;;7.28;5.57;;;13.60;72.30;;;;;;4998868;28;20051;-81
2022/03/13 01:47:38;;;;;;;7.50;6.05;;;13.60;72.30;;;;;;4998385;28;20048;-81
2022/03/13 01:50:09;;;;;;;8.20;6.40;;;13.60;72.40;;;;;;4983888;28;20026;-80
2022/03/13 01:52:38;;;;;;;7.32;5.32;;;13.60;72.40;;;;;;4982901;28;20114;-80
2022/03/13 01:55:04;;;;;;;7.45;5.95;;;13.60;72.50;;;;;;5014409;28;20096;-80
2022/03/13 01:57:32;;;;;;;8.02;6.03;;;13.60;72.50;;;;;;5016665;28;20044;-79
2022/03/13 02:00:00;;;;;;;8.20;5.97;;;13.60;72.50;;;;;;5007622;28;20078;-80
2022/03/13 02:02:28;;;;;;;8.30;6.18;;;13.60;72.60;;;;;;5025392;28;20038;-81
2022/03/13 02:04:56;;;;;;;8.40;6.53;;;13.50;72.50;;;;;;4997302;28;20032;-81
2022/03/13 02:07:23;;;;;;;8.55;6.25;;;13.60;72.60;;;;;;5007265;28;20107;-81
2022/03/13 02:09:50;;;;;;;7.45;5.80;;;13.50;72.60;;;;;;5000549;28;20057;-81
2022/03/13 02:12:19;;;;;;;8.52;6.32;;;13.60;72.60;;;;;;5003844;28;20048;-81
2022/03/13 02:14:46;;;;;;;8.18;6.43;;;13.60;72.70;;;;;;4959844;28;20034;-81
2022/03/13 02:17:11;;;;;;;8.43;6.82;;;13.50;72.60;;;;;;5028321;28;20030;-80
2022/03/13 02:19:37;;;;;;;9.07;6.90;;;13.50;72.60;;;;;;4999685;28;20529;-81
2022/03/13 02:22:03;;;;;;;8.68;6.25;;;13.50;72.70;;;;;;4999705;28;20544;-80
2022/03/13 02:24:29;;;;;;;7.93;6.45;;;13.50;72.70;;;;;;4976662;28;20521;-81
2022/03/13 02:27:04;;;;;;;8.43;7.03;;;13.50;72.70;;;;;;5000657;28;20022;-81
2022/03/13 02:29:31;;;;;;;8.65;7.03;;;13.50;72.70;;;;;;5005055;28;20033;-80
2022/03/13 02:32:01;;;;;;;9.55;6.82;;;13.40;72.70;;;;;;4980078;28;20033;-81
2022/03/13 02:34:27;;;;;;;9.02;7.18;;;13.40;72.80;;;;;;4990154;28;20492;-80
2022/03/13 02:37:00;;;;;;;10.77;7.43;;;13.40;72.90;;;;;;4996649;28;20033;-81
2022/03/13 02:39:27;;;;;;;9.70;7.65;;;13.40;72.80;;;;;;4996172;28;20524;-81
2022/03/13 02:41:53;;;;;;;9.48;7.35;;;13.40;72.80;;;;;;5026737;28;20141;-80
2022/03/13 02:44:19;;;;;;;10.23;7.78;;;13.40;72.80;;;;;;5009667;28;20530;-80
2022/03/13 02:46:48;;;;;;;9.88;7.78;;;13.40;72.90;;;;;;5017969;28;20632;-81
2022/03/13 02:49:15;;;;;;;8.50;7.28;;;13.30;72.90;;;;;;5042602;28;20032;-79
2022/03/13 02:51:42;;;;;;;10.82;8.35;;;13.30;72.90;;;;;;5011903;28;20065;-81
2022/03/13 02:54:08;;;;;;;10.52;8.43;;;13.30;73.00;;;;;;5026995;28;20044;-80
2022/03/13 02:56:34;;;;;;;10.45;8.40;;;13.30;73.00;;;;;;4997031;28;20090;-79
2022/03/13 02:59:00;;;;;;;10.75;8.63;;;13.30;73.00;;;;;;4999126;28;20029;-81
2022/03/13 03:01:26;;;;;;;10.45;8.50;;;13.30;73.00;;;;;;4996763;28;20041;-81
2022/03/13 03:04:00;;;;;;;11.07;8.93;;;13.20;72.90;;;;;;5025776;28;20465;-81
2022/03/13 03:06:29;;;;;;;9.88;8.73;;;13.20;73.00;;;;;;5006727;28;20087;-81
2022/03/13 03:08:54;;;;;;;11.32;9.50;;;13.20;73.00;;;;;;5002367;28;20735;-81
2022/03/13 03:11:20;;;;;;;10.90;9.02;;;13.20;73.10;;;;;;5032000;28;20057;-81
2022/03/13 03:13:46;;;;;;;10.20;7.90;;;13.20;73.10;;;;;;4995752;28;20532;-79
2022/03/13 03:16:12;;;;;;;11.43;9.18;;;13.20;73.10;;;;;;4982954;28;20034;-82
2022/03/13 03:18:38;;;;;;;10.75;8.80;;;13.10;73.10;;;;;;5041641;28;20026;-81
2022/03/13 03:21:03;;;;;;;10.88;8.85;;;13.10;73.10;;;;;;5012456;28;20095;-81
2022/03/13 03:23:29;;;;;;;10.27;8.27;;;13.10;73.10;;;;;;4986472;28;20029;-81
2022/03/13 03:25:55;;;;;;;12.55;9.20;;;13.10;73.10;;;;;;5000993;28;20120;-81
2022/03/13 03:28:22;;;;;;;10.70;9.18;;;13.10;73.20;;;;;;4981417;28;20533;-82
2022/03/13 03:30:48;;;;;;;10.70;8.80;;;13.00;73.20;;;;;;5001802;28;20077;-81
2022/03/13 03:33:14;;;;;;;11.70;9.10;;;13.00;73.20;;;;;;4978633;28;20026;-81
2022/03/13 03:35:40;;;;;;;11.25;9.43;;;13.00;73.20;;;;;;5009408;28;20041;-81
2022/03/13 03:38:06;;;;;;;10.88;8.63;;;13.00;73.20;;;;;;5001967;28;20061;-81
2022/03/13 03:40:33;;;;;;;10.55;8.65;;;13.00;73.30;;;;;;4983344;28;20038;-81
2022/03/13 03:43:04;;;;;;;11.18;9.20;;;13.00;73.30;;;;;;5012896;28;20032;-81
2022/03/13 03:45:31;;;;;;;12.77;9.40;;;12.90;73.20;;;;;;4994523;28;20042;-81
2022/03/13 03:47:59;;;;;;;10.45;8.90;;;12.90;73.20;;;;;;5014053;28;20064;-81
2022/03/13 03:50:25;;;;;;;11.25;9.40;;;12.90;73.30;;;;;;4996057;28;20025;-81
2022/03/13 03:52:54;;;;;;;11.02;8.85;;;12.90;73.30;;;;;;5017137;28;20042;-81
2022/03/13 03:55:22;;;;;;;10.57;8.50;;;12.90;73.30;;;;;;4997492;28;20550;-81
2022/03/13 03:57:47;;;;;;;10.90;8.73;;;12.90;73.30;;;;;;4997888;28;20025;-81
2022/03/13 04:00:14;;;;;;;11.25;9.23;;;12.90;73.40;;;;;;4994834;28;20171;-82
2022/03/13 04:02:41;;;;;;;12.07;9.50;;;12.80;73.30;;;;;;5014575;28;20045;-82
2022/03/13 04:05:08;;;;;;;11.38;8.85;;;12.80;73.40;;;;;;5014532;28;20037;-81
2022/03/13 04:07:33;;;;;;;12.88;9.48;;;12.80;73.40;;;;;;5028978;28;20073;-80
2022/03/13 04:09:59;;;;;;;11.13;8.80;;;12.80;73.40;;;;;;4994455;28;20485;-81
2022/03/13 04:12:28;;;;;;;11.20;9.35;;;12.80;73.40;;;;;;5022636;28;20021;-82
2022/03/13 04:14:54;;;;;;;11.63;8.93;;;12.80;73.50;;;;;;4979562;28;20036;-82
2022/03/13 04:17:20;;;;;;;11.88;9.65;;;12.70;73.40;;;;;;5013118;28;20471;-82
2022/03/13 04:19:46;;;;;;;10.77;8.68;;;12.70;73.50;;;;;;4997174;28;20116;-82
2022/03/13 04:22:12;;;;;;;10.40;8.32;;;12.70;73.50;;;;;;4999510;28;20614;-82
2022/03/13 04:24:38;;;;;;;12.80;9.20;;;12.70;73.50;;;;;;5011153;28;20046;-81
2022/03/13 04:27:04;;;;;;;11.60;9.30;;;12.70;74.20;;;;;;4983904;28;20041;-81
2022/03/13 04:29:30;;;;;;;12.20;9.82;;;12.70;73.60;;;;;;4995186;28;20473;-82
2022/03/13 04:31:57;;;;;;;11.38;8.80;;;12.70;73.60;;;;;;4981251;28;20121;-82
2022/03/13 04:34:23;;;;;;;11.15;9.10;;;12.60;73.50;;;;;;5011413;28;20064;-82
2022/03/13 04:36:49;;;;;;;12.63;9.75;;;12.60;73.60;;;;;;5009876;28;20475;-82
2022/03/13 04:39:16;;;;;;;10.90;9.10;;;12.60;73.50;;;;;;5000889;28;20100;-82
2022/03/13 04:41:42;;;;;;;11.65;9.52;;;12.60;73.60;;;;;;5013066;28;20043;-81
2022/03/13 04:44:08;;;;;;;11.35;9.32;;;12.60;73.60;;;;;;4995991;28;20030;-81
2022/03/13 04:46:35;;;;;;;11.00;8.68;;;12.60;73.60;;;;;;5001706;28;20030;-82
2022/03/13 04:49:01;;;;;;;11.00;8.75;;;12.60;73.60;;;;;;4996724;28;20050;-82
2022/03/13 04:51:26;;;;;;;10.70;8.88;;;12.60;73.60;;;;;;4997737;28;20084;-82
2022/03/13 04:53:52;;;;;;;10.73;8.75;;;12.50;73.60;;;;;;5003619;28;20057;-83
2022/03/13 04:56:18;;;;;;;11.18;9.02;;;12.50;73.60;;;;;;5015858;28;20128;-82
2022/03/13 04:58:44;;;;;;;10.57;8.70;;;12.50;73.60;;;;;;4998784;28;20022;-82
2022/03/13 05:01:11;;;;;;;11.05;8.60;;;12.50;73.60;;;;;;4992672;28;20043;-82
2022/03/13 05:03:36;;;;;;;10.93;9.05;;;12.50;74.30;;;;;;4992261;28;20042;-82
2022/03/13 05:06:05;;;;;;;10.52;8.07;;;12.50;73.70;;;;;;5003324;28;20386;-81
2022/03/13 05:08:35;;;;;;;11.10;8.55;;;12.50;73.70;;;;;;5012856;28;20030;-82
2022/03/13 05:11:05;;;;;;;10.82;8.77;;;12.40;73.70;;;;;;5008743;28;20113;-82
2022/03/13 05:13:31;;;;;;;11.10;8.82;;;12.40;73.70;;;;;;5015146;28;20018;-82
2022/03/13 05:15:57;;;;;;;10.80;8.32;;;12.40;73.70;;;;;;4996301;28;20030;-82
2022/03/13 05:18:23;;;;;;;10.35;8.68;;;12.40;73.70;;;;;;4993875;28;20033;-82
2022/03/13 05:20:49;;;;;;;11.00;8.57;;;12.40;73.80;;;;;;5008423;28;20070;-81
2022/03/13 05:23:16;;;;;;;11.80;9.02;;;12.40;73.80;;;;;;5011866;28;20026;-81
2022/03/13 05:25:42;;;;;;;10.70;8.63;;;12.40;73.80;;;;;;5008724;28;20042;-80
2022/03/13 05:28:09;;;;;;;10.65;8.80;;;12.40;73.80;;;;;;4988105;28;20042;-82
2022/03/13 05:30:39;;;;;;;10.05;8.40;;;12.40;73.80;;;;;;5007868;28;20521;-82
2022/03/13 05:33:06;;;;;;;10.65;8.73;;;12.40;73.80;;;;;;5000375;28;20042;-82
2022/03/13 05:35:33;;;;;;;11.75;8.90;;;12.40;73.80;;;;;;4990303;28;20034;-82
2022/03/13 05:37:59;;;;;;;10.32;8.60;;;12.40;73.80;;;;;;5000586;28;20022;-82
2022/03/13 05:40:25;;;;;;;9.90;8.20;;;12.30;73.80;;;;;;5010669;28;20026;-82
2022/03/13 05:42:57;;;;;;;11.02;8.88;;;12.30;73.80;;;;;;5005810;28;20045;-82
2022/03/13 05:45:25;;;;;;;9.73;7.78;;;12.30;73.80;;;;;;5015140;28;20061;-82
2022/03/13 05:47:53;;;;;;;10.05;8.43;;;12.30;73.80;;;;;;5004445;28;20026;-83
2022/03/13 05:50:21;;;;;;;10.60;8.10;;;12.30;73.90;;;;;;5012334;28;20030;-81
2022/03/13 05:52:48;;;;;;;10.18;7.93;;;12.30;73.80;;;;;;4995299;28;20036;-82
2022/03/13 05:55:15;;;;;;;10.25;8.50;;;12.30;73.80;;;;;;5012106;28;20029;-82
2022/03/13 05:57:41;;;;;;;10.48;8.25;;;12.30;73.80;;;;;;4999333;28;20034;-82
2022/03/13 06:00:12;;;;;;;10.80;8.38;;;12.30;73.70;;;;;;5010635;28;20092;-84
2022/03/13 06:02:41;;;;;;;9.98;8.45;;;12.30;73.80;;;;;;5012383;28;20035;-81
2022/03/13 06:05:12;;;;;;;10.85;8.50;;;12.20;73.70;;;;;;4991923;28;20509;-82
2022/03/13 06:07:39;;;;;;;10.00;8.27;;;12.20;73.70;;;;;;4989541;28;20038;-82
2022/03/13 06:10:08;;;;;;;9.95;7.80;;;12.20;73.70;;;;;;5007160;28;20057;-83
2022/03/13 06:12:35;;;;;;;10.55;8.10;;;12.20;73.70;;;;;;4994024;28;20466;-83
2022/03/13 06:15:03;;;;;;;9.77;7.78;;;12.20;73.60;;;;;;5007302;28;20479;-83
2022/03/13 06:17:28;;;;;;;9.77;7.78;;;12.20;73.60;;;;;;5011651;28;20036;-81
2022/03/13 06:19:55;;;;;;;9.75;7.82;;;12.20;73.60;;;;;;5006417;28;20034;-83
2022/03/13 06:22:25;;;;;;;9.55;7.70;;;12.20;73.60;;;;;;4994938;28;20491;-82
2022/03/13 06:24:52;;;;;;;9.27;7.63;;;12.20;73.60;;;;;;5012755;28;20044;-82
2022/03/13 06:27:20;;;;;;;10.27;7.75;;;12.20;73.70;;;;;;4993520;28;20033;-82
2022/03/13 06:29:46;;;;;;;9.20;7.53;;;12.20;73.70;;;;;;5001781;28;20022;-82
2022/03/13 06:32:11;;;;;;;10.20;8.00;;;12.10;73.50;;;;;;4981515;28;20044;-83
2022/03/13 06:34:37;;;;;;;10.38;8.02;;;12.10;73.50;;;;;;4996508;28;20038;-82
2022/03/13 06:37:06;;;;;;;9.80;7.75;;;12.10;73.50;;;;;;5003280;28;20062;-83
2022/03/13 06:39:32;;;;;;;9.18;7.13;;;12.10;73.50;;;;;;5002564;28;20076;-82
2022/03/13 06:41:58;;;;;;;9.18;7.57;;;12.10;73.50;;;;;;5013711;28;20042;-82
2022/03/13 06:44:24;;;;;;;8.98;7.45;;;12.10;73.50;;;;;;4997626;28;20669;-83
2022/03/13 06:46:49;;;;;;;9.52;7.68;;;12.10;73.50;;;;;;5007052;28;20033;-82
2022/03/13 06:49:17;;;;;;;9.32;7.38;;;12.10;73.50;;;;;;4978416;28;20030;-82
2022/03/13 06:51:43;;;;;;;9.18;7.28;;;12.10;73.50;;;;;;5000842;28;20040;-82
2022/03/13 06:54:10;;;;;;;9.60;7.38;;;12.10;73.40;;;;;;4992123;28;20014;-82
2022/03/13 06:56:36;;;;;;;9.60;7.45;;;12.10;73.40;;;;;;5003248;28;20188;-81
2022/03/13 06:59:04;;;;;;;8.85;7.00;;;12.10;73.40;;;;;;4994282;28;20030;-82
2022/03/13 07:01:31;;;;;;;8.77;7.05;;;12.10;73.40;;;;;;5011421;28;20038;-82
2022/03/13 07:03:56;;;;;;;8.85;6.97;;;12.00;73.40;;;;;;5005139;28;20556;-80
2022/03/13 07:06:22;;;;;;;8.55;6.78;;;12.00;73.40;;;;;;4977509;28;20034;-85
2022/03/13 07:08:48;;;;;;;8.80;7.30;;;12.00;73.40;;;;;;5002345;28;20044;-80
2022/03/13 07:11:17;;;;;;;9.45;7.35;;;12.00;73.40;;;;;;5009834;28;20030;-82
2022/03/13 07:13:45;;;;;;;9.00;6.85;;;12.00;73.40;;;;;;4993593;28;20730;-82
2022/03/13 07:16:15;;;;;;;8.60;6.65;;;12.00;73.40;;;;;;4977890;28;20564;-82
2022/03/13 07:18:45;;;;;;;9.10;6.93;;;12.00;73.40;;;;;;5009844;28;20517;-82
2022/03/13 07:21:11;;;;;;;8.73;6.63;;;12.00;73.40;;;;;;4988854;28;20042;-82
2022/03/13 07:23:38;;;;;;;9.25;7.20;;;12.00;73.40;;;;;;5008719;28;20080;-82
2022/03/13 07:26:04;;;;;;;9.35;7.70;;;12.00;73.40;;;;;;4974160;28;20055;-83
2022/03/13 07:28:30;;;;;;;9.57;6.63;;;11.90;73.30;;;;;;4990469;28;20048;-82
2022/03/13 07:30:59;;;;;;;9.52;7.28;;;12.00;73.40;;;;;;4974650;28;20038;-81
2022/03/13 07:33:25;;;;;;;9.85;7.05;;;12.00;73.40;;;;;;4959961;28;20058;-81
2022/03/13 07:35:50;;;;;;;9.55;7.70;;;12.00;73.40;;;;;;4971899;28;20134;-82
2022/03/13 07:38:16;;;;;;;10.02;7.25;;;12.00;73.40;;;;;;4973420;28;20443;-81
2022/03/13 07:40:43;;;;;;;9.18;7.07;;;12.00;73.40;;;;;;4949379;28;20058;-82
2022/03/13 07:43:12;;;;;;;8.05;6.50;;;12.00;73.40;;;;;;4986884;28;20026;-81
2022/03/13 07:45:37;;;;;;;8.40;6.93;;;12.00;74.00;;;;;;4988218;28;20431;-82
2022/03/13 07:48:03;;;;;;;9.15;7.47;;;12.00;73.40;;;;;;4971828;28;20022;-83
2022/03/13 07:50:30;;;;;;;9.50;7.05;;;11.90;73.30;;;;;;4970201;28;20039;-82
2022/03/13 07:52:56;;;;;;;8.13;6.43;;;12.00;73.40;;;;;;4987565;28;20031;-81
2022/03/13 07:55:23;;;;;;;8.65;6.93;;;12.00;73.40;;;;;;4982606;28;20108;-82
2022/03/13 07:57:49;;;;;;;8.93;7.32;;;12.00;73.40;;;;;;4960666;28;20057;-83
2022/03/13 08:00:17;;;;;;;9.18;6.60;;;12.00;73.30;;;;;;4976417;28;20046;-82
2022/03/13 08:02:46;;;;;;;8.05;6.75;;;12.00;73.40;;;;;;4969319;28;20115;-82
2022/03/13 08:05:13;;;;;;;8.48;6.88;;;12.00;73.30;;;;;;4977006;28;20025;-82
2022/03/13 08:07:39;;;;;;;8.07;6.32;;;12.00;73.40;;;;;;4994703;28;20058;-82
2022/03/13 08:10:05;;;;;;;8.25;6.65;;;12.00;73.40;;;;;;4976881;28;20364;-83
2022/03/13 08:12:32;;;;;;;8.75;6.70;;;11.90;73.30;;;;;;4993569;28;20091;-82
2022/03/13 08:14:57;;;;;;;8.30;6.65;;;12.00;73.40;;;;;;4976917;28;20582;-82
2022/03/13 08:17:23;;;;;;;8.70;6.85;;;11.90;73.30;;;;;;4986283;28;20175;-82
2022/03/13 08:19:49;;;;;;;8.25;6.55;;;11.90;73.40;;;;;;4973319;28;20430;-81
2022/03/13 08:22:17;;;;;;;9.73;7.70;;;12.00;74.10;;;;;;4960553;28;20077;-82
2022/03/13 08:24:43;;;;;;;8.00;6.70;;;12.00;73.40;;;;;;4976724;28;20058;-80
2022/03/13 08:27:09;;;;;;;8.40;6.57;;;12.00;73.40;;;;;;4975930;28;20383;-83
2022/03/13 08:29:35;;;;;;;9.65;7.55;;;12.00;73.40;;;;;;4973660;28;20396;-80
2022/03/13 08:32:00;;;;;;;8.52;6.65;;;12.00;73.40;;;;;;4976643;28;20038;-79
2022/03/13 08:34:30;;;;;;;9.90;6.80;;;12.00;73.40;;;;;;4977160;28;20467;-80
2022/03/13 08:36:56;;;;;;;8.23;6.50;;;12.00;73.40;;;;;;4978918;28;20054;-80
2022/03/13 08:39:22;;;;;;;8.57;6.70;;;11.90;73.40;;;;;;4958663;28;20026;-81
2022/03/13 08:41:47;;;;;;;8.02;6.57;;;12.00;73.40;;;;;;4995767;28;20509;-82
2022/03/13 08:44:13;;;;;;;8.25;6.55;;;12.00;73.50;;;;;;4957103;28;20106;-81
2022/03/13 08:46:39;;;;;;;9.20;6.43;;;12.00;73.50;;;;;;4992610;28;20036;-80
2022/03/13 08:49:07;;;;;;;9.25;6.95;;;12.00;73.50;;;;;;4976308;28;20034;-81
2022/03/13 08:51:33;;;;;;;8.75;6.85;;;12.00;73.50;;;;;;4992492;28;20044;-81
2022/03/13 08:53:59;;;;;;;9.18;7.00;;;12.00;73.50;;;;;;4958353;28;20118;-81
2022/03/13 08:56:26;;;;;;;7.57;6.35;;;12.00;73.50;;;;;;4960578;28;20497;-81
2022/03/13 08:58:53;;;;;;;9.15;7.13;;;12.10;73.60;;;;;;4960275;28;20030;-81
2022/03/13 09:01:19;;;;;;;8.38;6.43;;;12.10;73.60;;;;;;4984581;28;20045;-81
2022/03/13 09:03:48;;;;;;;8.73;6.35;;;12.10;73.60;;;;;;4960310;28;20030;-82
2022/03/13 09:06:14;;;;;;;8.52;6.75;;;12.10;73.50;;;;;;4983855;28;20030;-81
2022/03/13 09:08:40;;;;;;;8.15;6.43;;;12.10;73.60;;;;;;4985978;28;20439;-81
2022/03/13 09:11:07;;;;;;;8.82;6.68;;;12.10;73.60;;;;;;4973953;28;20074;-81
2022/03/13 09:13:33;;;;;;;8.57;6.85;;;12.10;73.60;;;;;;4972355;28;20038;-81
2022/03/13 09:15:59;;;;;;;7.88;6.30;;;12.10;73.50;;;;;;4987146;28;20391;-81
2022/03/13 09:18:24;;;;;;;8.38;6.65;;;12.10;73.50;;;;;;4974077;28;20359;-81
2022/03/13 09:20:50;;;;;;;8.23;6.88;;;12.10;73.50;;;;;;4975282;28;20026;-81
2022/03/13 09:23:16;;;;;;;9.65;6.78;;;12.20;73.50;;;;;;4975590;28;20022;-81
2022/03/13 09:25:42;;;;;;;7.97;6.32;;;12.20;73.50;;;;;;4962416;28;20415;-81
2022/03/13 09:28:08;;;;;;;8.48;6.72;;;12.20;73.40;;;;;;4976112;28;20388;-81
2022/03/13 09:30:35;;;;;;;8.50;6.60;;;12.20;73.40;;;;;;4991474;28;20468;-82
2022/03/13 09:33:01;;;;;;;8.90;6.82;;;12.20;73.40;;;;;;4959645;28;20117;-80
2022/03/13 09:35:27;;;;;;;8.38;6.53;;;12.20;73.40;;;;;;4983472;28;20026;-80
2022/03/13 09:37:53;;;;;;;8.00;6.68;;;12.30;73.50;;;;;;4958937;28;20019;-80
2022/03/13 09:40:19;;;;;;;9.00;6.60;;;12.30;73.50;;;;;;4974921;28;20042;-80
2022/03/13 09:42:47;;;;;;;8.70;6.78;;;12.30;73.40;;;;;;4972317;28;20054;-80
2022/03/13 09:45:14;;;;;;;7.82;6.30;;;12.30;73.40;;;;;;4974634;28;20026;-79
2022/03/13 09:47:40;;;;;;;8.40;6.75;;;12.40;73.50;;;;;;4974178;28;20125;-80
2022/03/13 09:50:08;;;;;;;8.23;6.25;;;12.40;73.40;;;;;;4990583;28;20097;-80
2022/03/13 09:52:36;;;;;;;8.98;6.65;;;12.40;73.40;;;;;;4990809;28;20058;-80
2022/03/13 09:55:02;;;;;;;8.70;6.80;;;12.40;73.30;;;;;;4990742;28;20084;-80
2022/03/13 09:57:28;;;;;;;8.77;6.57;;;12.50;73.30;;;;;;4974614;28;20399;-79
2022/03/13 09:59:54;;;;;;;7.95;6.07;;;12.50;73.30;;;;;;4982783;28;20128;-81
2022/03/13 10:02:20;;;;;;;8.35;6.22;;;12.60;73.30;;;;;;4974877;28;20428;-80
2022/03/13 10:04:46;;;;;;;8.20;6.38;;;12.60;73.20;;;;;;4991040;28;20031;-81
2022/03/13 10:07:12;;;;;;;7.93;6.47;;;12.70;73.20;;;;;;4956661;28;20029;-80
2022/03/13 10:09:41;;;;;;;8.60;6.55;;;12.70;73.20;;;;;;4990654;28;20027;-82
2022/03/13 10:12:08;;;;;;;9.05;6.70;;;12.80;73.20;;;;;;4974350;28;20027;-80
2022/03/13 10:14:55;;;;;;;9.90;7.47;;;12.80;73.20;;;;;;4990458;28;20030;-80
2022/03/13 10:17:29;;;;;;;8.57;6.35;;;12.90;73.80;;;;;;4974450;28;20093;-80
2022/03/13 10:20:11;;;;;;;8.35;6.38;;;13.00;73.10;;;;;;4974212;28;20026;-81
2022/03/13 10:22:37;;;;;;;9.05;6.65;;;13.00;73.00;;;;;;4990627;28;20081;-81
2022/03/13 10:25:03;;;;;;;8.95;6.53;;;13.10;72.90;;;;;;4996761;28;20053;-82
2022/03/13 10:27:34;;;;;;;8.93;6.47;;;13.20;73.00;;;;;;4985915;28;20047;-82
2022/03/13 10:30:06;;;;;;;8.18;6.07;;;13.20;72.90;;;;;;4985900;28;20057;-81
2022/03/13 10:32:32;;;;;;;7.82;6.38;;;13.30;73.00;;;;;;4977921;28;20030;-81
2022/03/13 10:34:58;;;;;;;8.50;6.53;;;13.40;72.90;;;;;;4993287;28;20478;-81
2022/03/13 10:37:43;;;;;;;8.20;6.50;;;13.40;72.90;;;;;;5009621;28;20026;-81
2022/03/13 10:40:33;;;;;;;8.13;6.63;;;13.50;72.90;;;;;;5003021;28;20533;-81
2022/03/13 10:43:09;;;;;;;8.02;6.15;;;13.50;72.90;;;;;;4986791;28;20435;-81
2022/03/13 10:45:41;;;;;;;7.78;5.78;;;13.60;72.70;;;;;;4991796;28;20026;-81
2022/03/13 10:48:22;;;;;;;7.30;6.15;;;13.70;72.80;;;;;;4997701;28;20018;-82
2022/03/13 10:50:52;;;;;;;7.85;6.40;;;13.80;72.80;;;;;;5006563;28;20413;-80
2022/03/13 10:53:20;;;;;;;8.25;6.65;;;13.80;72.70;;;;;;5009738;28;20037;-81
2022/03/13 10:56:20;;;;;;;8.32;6.63;;;13.90;72.70;;;;;;4993535;28;20034;-81
2022/03/13 10:58:47;;;;;;;8.27;6.30;;;13.90;72.80;;;;;;4946608;28;20049;-81
2022/03/13 11:01:23;;;;;;;7.97;6.65;;;14.00;72.60;;;;;;5009453;28;20034;-82
2022/03/13 11:04:06;;;;;;;9.15;6.57;;;14.10;72.70;;;;;;5009244;28;20125;-81
2022/03/13 11:06:32;;;;;;;9.23;6.93;;;14.10;72.60;;;;;;4982241;28;20031;-81
2022/03/13 11:08:59;;;;;;;8.18;6.80;;;14.20;72.50;;;;;;5008269;28;20075;-82
2022/03/13 11:11:29;;;;;;;7.82;6.70;;;14.30;72.50;;;;;;4992150;28;20068;-84
2022/03/13 11:14:02;;;;;;;9.20;7.30;;;14.40;72.50;;;;;;4992449;28;20056;-81
2022/03/13 11:16:30;;;;;;;9.40;7.25;;;14.40;72.50;;;;;;5008444;28;20030;-81
2022/03/13 11:19:05;;;;;;;9.07;6.53;;;14.50;72.50;;;;;;4992731;28;20014;-81
2022/03/13 11:21:32;;;;;;;10.07;7.20;;;14.50;72.40;;;;;;4992348;28;20041;-81
2022/03/13 11:24:00;;;;;;;8.98;7.13;;;14.60;72.40;;;;;;4975181;28;20034;-81
2022/03/13 11:26:30;;;;;;;8.15;6.63;;;14.60;72.40;;;;;;4991960;28;20096;-81
2022/03/13 11:28:58;;;;;;;9.25;7.28;;;14.70;72.40;;;;;;4988332;28;20227;-82
2022/03/13 11:31:38;;;;;;;11.35;7.00;;;14.80;72.40;;;;;;4988434;28;20393;-82
2022/03/13 11:34:19;;;;;;;8.15;6.78;;;14.90;72.50;;;;;;5008681;28;20025;-81
2022/03/13 11:36:50;;;;;;;7.63;5.93;;;14.90;72.40;;;;;;4991682;28;20053;-81
2022/03/13 11:39:28;;;;;;;9.13;7.30;;;15.00;72.50;;;;;;5008341;28;20018;-82
2022/03/13 11:41:54;;;;;;;8.70;6.97;;;15.00;72.50;;;;;;4991953;28;20467;-82
2022/03/13 11:44:23;;;;;;;7.85;6.70;;;15.10;72.60;;;;;;4992910;28;20113;-79
2022/03/13 11:46:57;;;;;;;9.20;7.10;;;15.10;72.60;;;;;;5008914;28;20049;-79
2022/03/13 11:49:26;;;;;;;9.25;7.50;;;15.20;72.70;;;;;;5009958;28;20129;-80
2022/03/13 11:52:12;;;;;;;8.55;6.95;;;15.30;72.70;;;;;;5009238;28;20557;-80
2022/03/13 11:54:52;;;;;;;8.40;6.82;;;15.30;72.80;;;;;;5009277;28;20407;-80
2022/03/13 11:57:20;;;;;;;8.23;6.30;;;15.40;72.80;;;;;;4993712;28;20397;-79
2022/03/13 11:59:49;;;;;;;8.60;6.97;;;15.40;72.90;;;;;;4993523;28;20061;-80
2022/03/13 12:02:40;;;;;;;8.45;6.20;;;15.50;72.80;;;;;;4978403;28;20064;-81
2022/03/13 12:05:24;;;;;;;7.90;6.30;;;15.50;72.90;;;;;;5009362;28;20466;-80
2022/03/13 12:07:54;;;;;;;7.55;6.28;;;15.60;73.00;;;;;;5009029;28;20030;-81
2022/03/13 12:10:43;;;;;;;7.93;6.38;;;15.60;73.00;;;;;;4984037;28;20042;-80
2022/03/13 12:13:12;;;;;;;7.88;6.00;;;15.70;73.20;;;;;;4992042;28;20030;-80
2022/03/13 12:15:41;;;;;;;8.38;6.38;;;15.80;73.20;;;;;;4990250;28;20033;-79
2022/03/13 12:18:25;;;;;;;8.75;6.53;;;15.80;73.30;;;;;;5008542;28;20513;-79
2022/03/13 12:20:52;;;;;;;7.55;6.20;;;15.80;73.30;;;;;;4983230;28;20030;-80
2022/03/13 12:23:26;;;;;;;8.05;6.25;;;15.90;73.30;;;;;;5008321;28;20094;-81
2022/03/13 12:25:54;;;;;;;7.72;6.75;;;15.90;73.40;;;;;;4989421;28;20049;-80
2022/03/13 12:28:33;;;;;;;7.88;6.00;;;16.00;73.40;;;;;;4982041;28;20022;-81
2022/03/13 12:31:00;;;;;;;7.32;5.63;;;16.00;73.40;;;;;;4983333;28;20475;-78
2022/03/13 12:33:27;;;;;;;8.30;6.28;;;16.10;73.40;;;;;;4992614;28;20022;-78
2022/03/13 12:35:55;;;;;;;7.47;6.03;;;16.10;73.40;;;;;;4955904;28;20034;-82
2022/03/13 12:38:26;;;;;;;7.93;6.28;;;16.20;73.40;;;;;;4988974;28;20437;-82
2022/03/13 12:40:52;;;;;;;7.25;5.78;;;16.20;73.50;;;;;;4971355;28;20089;-81
2022/03/13 12:43:20;;;;;;;7.90;6.03;;;16.30;73.60;;;;;;4991243;28;20042;-82
2022/03/13 12:45:52;;;;;;;7.43;6.07;;;16.30;73.50;;;;;;4976458;28;20030;-82
2022/03/13 12:48:18;;;;;;;7.60;6.00;;;16.40;73.50;;;;;;4973784;28;20133;-82